LZTT/TAT METAR and TAF weather

Enter ICAO airport designator
Station Type Date Time Source
LZTT METAR 2018/12/13 08:30 UTC NOAA

LZTT 130830Z 28009KT 9999 FEW004 M05/M07 Q1018 NOSIG


Station Type Date Time Source
LZTT Decoded METAR 2018/12/13 08:30 UTC NOAA

Poprad / Tatry, Slovakia (LZTT) 49-04N 020-15E 695M
Dec 13, 2018 - 03:30 AM EST / 2018.12.13 0830 UTC
Wind: from the W (280 degrees) at 10 MPH (9 KT):0
Visibility: greater than 7 mile(s):0
Sky conditions: mostly clear
Temperature: 23 F (-5 C)
Windchill: 12 F (-11 C):1
Dew Point: 19 F (-7 C)
Relative Humidity: 85%
Pressure (altimeter): 30.06 in. Hg (1018 hPa)
ob: LZTT 130830Z 28009KT 9999 FEW004 M05/M07 Q1018 NOSIG
cycle: 8

Station Type Date Time Source
LZTT TAF 2018/12/13 07:26 UTC NOAA

TAF
AMD LZTT 130721Z 1307/1406 27009KT 9999 FEW006 SCT080
BECMG 1308/1310 FEW030
BECMG 1310/1312 26005KT CAVOK PROB40
TEMPO 1322/1406 VRB02KT 4000 BR SCT010


Example: see airport list